Aviation Digital Data Service (ADDS)

Output produced by METARs form (1058 UTC 25 April 2015)
found at http://www.aviationweather.gov/adds/metars/
 
KDCA 250906Z 2509/2606 VRB04KT P6SM OVC100 
     FM252100 17004KT P6SM -RA OVC070 
     FM260000 00000KT 6SM -RA OVC025 
     FM260200 VRB03KT 3SM -RA OVC015